Time;durP1;ratioP1;P1;durP2;ratioP2;P2;SDS_P1;SDS_P2;PMS_P1;PMS_P2;Temp;Humidity;BMP_temperature;BMP_pressure;BME280_temperature;BME280_humidity;BME280_pressure;Samples;Min_cycle;Max_cycle;Signal;HPM_P1;HPM_P2
2023/01/14 00:00:12;;;;;;;;;54.67;42.67;;;;;6.67;92.50;100229.09;5070883;27;46148;-77
2023/01/14 00:02:37;;;;;;;;;53.00;42.00;;;;;6.62;92.54;100221.25;5072938;28;45810;-77
2023/01/14 00:05:03;;;;;;;;;53.33;45.00;;;;;6.64;92.66;100224.75;5071395;27;45437;-77
2023/01/14 00:07:28;;;;;;;;;49.33;39.67;;;;;6.60;92.61;100226.50;5074249;28;45515;-77
2023/01/14 00:09:54;;;;;;;;;54.00;43.00;;;;;6.59;92.57;100219.53;5087497;27;47284;-77
2023/01/14 00:12:20;;;;;;;;;60.67;46.67;;;;;6.59;92.56;100218.66;5073918;27;45484;-77
2023/01/14 00:14:45;;;;;;;;;53.00;41.00;;;;;6.59;92.96;100216.91;5072071;27;45570;-77
2023/01/14 00:17:13;;;;;;;;;54.33;42.33;;;;;6.57;92.79;100202.94;5071671;28;45549;-77
2023/01/14 00:19:39;;;;;;;;;53.33;42.00;;;;;6.53;92.47;100198.63;5088522;27;47233;-77
2023/01/14 00:22:04;;;;;;;;;50.33;37.67;;;;;6.51;92.82;100196.88;5074074;28;45424;-77
2023/01/14 00:24:30;;;;;;;;;50.00;41.33;;;;;6.49;93.01;100193.41;5069852;27;45492;-77
2023/01/14 00:26:57;;;;;;;;;51.67;41.00;;;;;6.50;93.02;100198.63;5074127;27;45635;-77
2023/01/14 00:29:26;;;;;;;;;44.00;37.33;;;;;6.46;93.04;100183.81;5068371;28;45448;-78
2023/01/14 00:31:54;;;;;;;;;55.67;43.33;;;;;6.50;93.17;100193.41;5067424;28;45550;-77
2023/01/14 00:34:20;;;;;;;;;51.67;39.67;;;;;6.48;93.36;100189.03;5071187;27;45457;-77
2023/01/14 00:36:48;;;;;;;;;41.33;36.67;;;;;6.48;93.21;100182.06;5072914;27;45444;-77
2023/01/14 00:39:14;;;;;;;;;58.67;44.67;;;;;6.44;93.15;100175.09;5070989;27;46396;-77
2023/01/14 00:41:40;;;;;;;;;54.67;42.00;;;;;6.43;93.30;100178.59;5072421;27;45472;-77
2023/01/14 00:44:05;;;;;;;;;52.67;41.00;;;;;6.44;93.13;100180.31;5073434;27;45454;-77
2023/01/14 00:46:33;;;;;;;;;45.67;37.33;;;;;6.44;93.46;100185.56;5072389;28;45517;-78
2023/01/14 00:49:01;;;;;;;;;52.00;40.67;;;;;6.44;93.31;100179.47;5064791;27;46435;-77
2023/01/14 00:51:27;;;;;;;;;44.00;38.67;;;;;6.44;93.20;100180.31;5065894;27;45466;-77
2023/01/14 00:53:53;;;;;;;;;49.00;39.00;;;;;6.41;92.97;100169.88;5065785;28;45422;-77
2023/01/14 00:56:21;;;;;;;;;40.67;35.67;;;;;6.39;92.96;100169.00;5071344;27;45509;-77
2023/01/14 00:58:47;;;;;;;;;50.00;41.00;;;;;6.37;93.13;100162.06;5073422;27;46171;-77
2023/01/14 01:01:13;;;;;;;;;43.00;36.33;;;;;6.28;92.71;100152.50;5072877;27;45427;-77
2023/01/14 01:03:59;;;;;;;;;39.00;35.00;;;;;6.26;92.15;100151.63;5073614;27;45500;-77
2023/01/14 01:06:26;;;;;;;;;34.00;29.67;;;;;6.20;91.93;100162.16;5073298;27;45401;-77
2023/01/14 01:09:00;;;;;;;;;40.00;35.67;;;;;6.13;92.15;100168.31;5073403;27;46147;-77
2023/01/14 01:11:26;;;;;;;;;46.33;33.67;;;;;6.08;92.03;100151.75;5071681;27;45367;-77
2023/01/14 01:13:54;;;;;;;;;41.33;37.00;;;;;6.01;92.19;100150.91;5088835;27;45379;-77
2023/01/14 01:16:23;;;;;;;;;38.67;36.00;;;;;5.98;92.36;100147.44;5071475;27;45368;-77
2023/01/14 01:18:56;;;;;;;;;42.67;36.00;;;;;5.95;92.20;100158.78;5076434;27;47103;-77
2023/01/14 01:21:22;;;;;;;;;36.67;32.33;;;;;5.90;92.80;100158.81;5072831;27;45694;-77
2023/01/14 01:23:48;;;;;;;;;37.00;32.00;;;;;5.83;92.86;100149.22;5076956;27;45458;-77
2023/01/14 01:26:20;;;;;;;;;44.00;38.67;;;;;5.84;92.88;100156.19;5074751;27;45474;-77
2023/01/14 01:28:51;;;;;;;;;46.00;36.33;;;;;5.80;93.23;100154.47;5073274;27;45655;-77
2023/01/14 01:31:17;;;;;;;;;46.33;36.00;;;;;5.80;93.08;100154.47;5074478;27;45392;-77
2023/01/14 01:33:43;;;;;;;;;43.33;37.67;;;;;5.77;93.52;100149.25;5076642;28;45444;-77
2023/01/14 01:36:21;;;;;;;;;42.67;37.67;;;;;5.80;93.60;100146.63;5070287;27;45407;-77
2023/01/14 01:38:47;;;;;;;;;47.33;37.33;;;;;5.75;93.69;100148.38;5076154;28;46213;-77
2023/01/14 01:41:19;;;;;;;;;41.00;36.33;;;;;5.80;93.59;100159.69;5070688;27;45533;-77
2023/01/14 01:44:07;;;;;;;;;44.67;37.67;;;;;5.82;93.66;100162.31;5077176;27;45435;-77
2023/01/14 01:46:34;;;;;;;;;47.00;38.67;;;;;5.80;93.69;100156.22;5073875;27;45461;-77
2023/01/14 01:49:10;;;;;;;;;48.67;38.67;;;;;5.74;93.62;100151.88;5076497;27;46636;-77
2023/01/14 01:51:43;;;;;;;;;46.33;40.33;;;;;5.73;93.18;100151.88;5075093;27;45507;-77
2023/01/14 01:54:09;;;;;;;;;37.67;34.33;;;;;5.72;93.41;100156.22;5067253;28;45418;-77
2023/01/14 01:56:38;;;;;;;;;41.00;36.00;;;;;5.69;93.34;100160.63;5075436;28;45560;-77
2023/01/14 01:59:09;;;;;;;;;43.00;38.33;;;;;5.66;93.55;100155.41;5075947;27;45679;-77
2023/01/14 02:01:35;;;;;;;;;36.33;31.67;;;;;5.61;93.60;100142.34;5072172;27;45497;-77
2023/01/14 02:04:01;;;;;;;;;39.33;36.00;;;;;5.60;93.57;100143.22;5074672;28;45452;-77
2023/01/14 02:06:26;;;;;;;;;39.00;35.67;;;;;5.64;93.56;100141.47;5074322;27;45466;-77
2023/01/14 02:08:54;;;;;;;;;43.67;37.67;;;;;5.58;93.93;100129.25;5071857;27;46175;-77
2023/01/14 02:11:47;;;;;;;;;40.33;36.67;;;;;5.60;93.65;100140.59;5074626;27;45486;-77
2023/01/14 02:14:21;;;;;;;;;37.33;33.33;;;;;5.57;93.64;100124.91;5067544;28;45388;-77
2023/01/14 02:17:07;;;;;;;;;41.00;33.00;;;;;5.57;93.64;100123.16;5073979;27;45495;-78
2023/01/14 02:19:42;;;;;;;;;38.00;35.00;;;;;5.56;93.62;100124.03;5062649;27;46287;-77
2023/01/14 02:22:45;;;;;;;;;37.67;35.00;;;;;5.55;93.68;100127.53;5071524;28;45586;-77
2023/01/14 02:25:58;;;;;;;;;32.67;32.33;;;;;5.52;93.46;100124.94;5073732;28;45593;-77
2023/01/14 02:28:33;;;;;;;;;40.33;37.33;;;;;5.52;93.38;100126.69;5044746;27;45592;-77
2023/01/14 02:31:14;;;;;;;;;53.67;38.33;;;;;5.43;93.54;100108.41;5073596;27;45623;-77
2023/01/14 02:33:49;;;;;;;;;43.00;38.33;;;;;5.43;93.95;100122.34;5072829;28;45600;-77
2023/01/14 02:36:14;;;;;;;;;45.67;38.33;;;;;5.44;93.79;100115.38;5084460;27;45317;-77
2023/01/14 02:38:49;;;;;;;;;48.33;39.33;;;;;5.42;93.99;100117.13;5074777;27;45460;-77
2023/01/14 02:44:37;;;;;;;;;55.33;44.00;;;;;5.37;94.40;100127.59;5073023;28;45551;-77
2023/01/14 02:47:16;;;;;;;;;54.33;41.00;;;;;5.36;94.80;100122.38;5075985;27;45379;-77
2023/01/14 02:49:44;;;;;;;;;57.00;42.33;;;;;5.32;94.83;100126.75;5073539;27;45564;-77
2023/01/14 02:52:11;;;;;;;;;59.33;45.00;;;;;5.30;95.23;100136.34;5075179;27;46536;-77
2023/01/14 02:54:37;;;;;;;;;55.33;44.33;;;;;5.29;95.32;100131.09;5073956;27;45574;-77
2023/01/14 02:57:29;;;;;;;;;59.00;46.33;;;;;5.28;95.67;100130.22;5074244;27;45503;-77
2023/01/14 03:00:07;;;;;;;;;56.33;44.67;;;;;5.30;95.75;100128.50;5068274;27;45448;-77
2023/01/14 03:03:06;;;;;;;;;55.00;41.00;;;;;5.28;95.96;100125.00;5069816;27;46301;-77
2023/01/14 03:05:46;;;;;;;;;50.33;41.67;;;;;5.32;95.69;100124.13;5053233;27;45557;-77
2023/01/14 03:08:36;;;;;;;;;55.67;42.33;;;;;5.34;95.66;100118.91;5072101;28;45397;-77
2023/01/14 03:11:09;;;;;;;;;35.33;33.00;;;;;5.35;95.41;100126.75;5071434;27;45525;-77
2023/01/14 03:13:51;;;;;;;;;57.00;42.67;;;;;5.32;95.33;100116.28;5079430;27;46988;-77
2023/01/14 03:16:46;;;;;;;;;43.33;37.33;;;;;5.35;95.48;100118.91;5068170;27;45515;-77
2023/01/14 03:19:14;;;;;;;;;48.67;40.00;;;;;5.39;95.57;100125.84;5069309;27;45443;-77
2023/01/14 03:21:48;;;;;;;;;42.00;36.33;;;;;5.38;95.24;100118.00;5073401;28;45369;-77
2023/01/14 03:24:16;;;;;;;;;48.00;41.33;;;;;5.37;95.27;100116.25;5066721;28;46268;-77
2023/01/14 03:26:46;;;;;;;;;55.67;39.00;;;;;5.32;95.03;100108.44;5074562;27;45431;-77
2023/01/14 03:29:17;;;;;;;;;49.33;37.33;;;;;5.31;95.00;100117.16;5074029;27;45426;-77
2023/01/14 03:31:51;;;;;;;;;46.00;36.00;;;;;5.30;95.27;100117.16;5073372;27;45384;-77
2023/01/14 03:34:25;;;;;;;;;48.33;38.33;;;;;5.29;95.44;100111.06;5074691;27;46404;-77
2023/01/14 03:36:53;;;;;;;;;47.00;39.33;;;;;5.30;95.65;100102.34;5074573;27;45399;-77
2023/01/14 03:39:23;;;;;;;;;45.00;37.00;;;;;5.29;95.59;100108.44;5074452;28;45484;-77
2023/01/14 03:44:59;;;;;;;;;52.33;42.00;;;;;5.26;95.60;100096.25;5071408;28;45598;-77
2023/01/14 03:47:28;;;;;;;;;46.00;38.67;;;;;5.22;95.65;100086.66;5074943;27;45485;-77
2023/01/14 03:49:57;;;;;;;;;48.00;38.67;;;;;5.21;95.64;100084.06;5072325;27;45474;-77
2023/01/14 03:52:41;;;;;;;;;53.33;39.00;;;;;5.23;95.49;100083.19;5072440;28;45630;-77
2023/01/14 03:55:20;;;;;;;;;44.67;39.00;;;;;5.20;95.38;100075.34;5073671;28;46519;-77
2023/01/14 03:57:56;;;;;;;;;45.00;39.67;;;;;5.16;95.25;100057.97;5074779;27;45392;-77
2023/01/14 04:00:47;;;;;;;;;47.00;38.33;;;;;5.17;95.31;100064.06;5069837;27;45347;-77
2023/01/14 04:03:14;;;;;;;;;43.00;37.67;;;;;5.20;95.41;100062.28;5072146;27;45451;-77
2023/01/14 04:05:40;;;;;;;;;42.00;36.67;;;;;5.17;94.97;100061.44;5069232;27;46674;-77
2023/01/14 04:08:07;;;;;;;;;44.67;38.67;;;;;5.15;94.96;100071.91;5073673;28;45509;-77
2023/01/14 04:10:33;;;;;;;;;51.00;38.67;;;;;5.17;95.15;100066.66;5072696;27;45432;-77
2023/01/14 04:15:42;;;;;;;;;46.00;38.00;;;;;5.06;95.05;100053.63;5069696;27;45810;-77
2023/01/14 04:18:07;;;;;;;;;39.67;35.67;;;;;5.03;94.77;100051.00;5073805;27;45388;-77
2023/01/14 04:20:33;;;;;;;;;40.33;37.33;;;;;5.02;94.90;100057.13;5065157;27;45457;-77
2023/01/14 04:22:58;;;;;;;;;38.67;30.33;;;;;4.97;94.81;100048.44;5072638;27;45491;-77
2023/01/14 04:25:24;;;;;;;;;44.00;35.00;;;;;4.93;94.64;100040.59;5070224;28;48073;-77
2023/01/14 04:27:50;;;;;;;;;37.33;33.00;;;;;4.93;95.11;100045.81;5073178;28;45609;-77
2023/01/14 04:30:15;;;;;;;;;41.67;35.67;;;;;4.93;95.17;100051.91;5070403;28;45530;-77
2023/01/14 04:32:41;;;;;;;;;36.33;33.00;;;;;4.93;95.03;100045.81;5072860;27;45528;-77
2023/01/14 04:35:06;;;;;;;;;37.67;33.33;;;;;4.91;95.05;100048.44;5071833;28;46511;-77
2023/01/14 04:37:32;;;;;;;;;42.00;33.33;;;;;4.90;95.15;100047.56;5073923;27;45453;-77
2023/01/14 04:39:57;;;;;;;;;38.00;34.33;;;;;4.93;95.08;100051.91;5071311;27;45580;-77
2023/01/14 04:42:26;;;;;;;;;41.00;34.33;;;;;4.91;95.14;100056.28;5073908;27;45397;-77
2023/01/14 04:45:00;;;;;;;;;40.00;30.67;;;;;4.92;94.87;100065.84;5071608;28;46741;-77
2023/01/14 04:47:27;;;;;;;;;41.67;36.67;;;;;4.88;95.00;100053.66;5082961;27;45464;-77
2023/01/14 04:49:54;;;;;;;;;39.00;27.33;;;;;4.90;95.10;100058.00;5072706;27;45479;-77
2023/01/14 04:52:20;;;;;;;;;29.67;27.67;;;;;4.88;94.99;100051.03;5076164;28;45530;-77
2023/01/14 04:54:46;;;;;;;;;39.67;32.67;;;;;4.84;94.66;100039.75;5077412;27;45568;-77
2023/01/14 04:57:11;;;;;;;;;39.67;30.33;;;;;4.87;94.79;100044.09;5077187;27;45462;-77
2023/01/14 04:59:37;;;;;;;;;33.00;30.00;;;;;4.86;94.77;100052.78;5075256;28;45542;-77
2023/01/14 05:02:03;;;;;;;;;27.33;23.33;;;;;4.83;94.64;100050.22;5077603;27;45494;-78
2023/01/14 05:04:30;;;;;;;;;29.67;28.33;;;;;4.82;94.61;100049.34;5076137;27;46586;-78
2023/01/14 05:06:56;;;;;;;;;26.67;24.33;;;;;4.84;94.30;100047.59;5071506;27;45444;-77
2023/01/14 05:09:22;;;;;;;;;26.00;24.33;;;;;4.86;94.33;100044.94;5075416;27;45598;-77
2023/01/14 05:11:47;;;;;;;;;26.00;23.33;;;;;4.90;94.09;100049.31;5075338;27;45510;-77
2023/01/14 05:14:13;;;;;;;;;32.00;27.33;;;;;4.91;94.29;100048.44;5074630;27;45575;-77
2023/01/14 05:16:38;;;;;;;;;28.67;25.67;;;;;4.94;94.52;100034.50;5070405;27;45370;-77
2023/01/14 05:19:04;;;;;;;;;26.00;25.00;;;;;4.93;94.17;100028.41;5076626;27;45582;-77
2023/01/14 05:21:29;;;;;;;;;22.67;22.00;;;;;4.96;94.33;100031.00;5074260;27;45305;-77
2023/01/14 05:23:55;;;;;;;;;31.67;29.00;;;;;5.01;94.07;100026.66;5077805;27;45904;-77
2023/01/14 05:26:20;;;;;;;;;29.67;24.00;;;;;4.99;94.25;100015.34;5070686;27;45359;-78
2023/01/14 05:28:45;;;;;;;;;20.33;19.67;;;;;5.01;94.00;100016.19;5076937;27;45329;-77
2023/01/14 05:31:28;;;;;;;;;28.00;26.00;;;;;5.04;93.60;100010.94;5076293;27;45369;-78
2023/01/14 05:33:53;;;;;;;;;24.33;23.00;;;;;5.03;93.22;100010.94;5076941;27;45674;-79
2023/01/14 05:36:18;;;;;;;;;21.33;18.33;;;;;5.08;93.16;100006.56;5076111;27;45457;-65
2023/01/14 05:38:44;;;;;;;;;23.33;19.00;;;;;5.16;93.22;99997.84;5076783;28;45915;-69
2023/01/14 05:41:13;;;;;;;;;19.00;17.33;;;;;5.27;92.43;100013.47;5076746;27;45577;-69
2023/01/14 05:46:22;;;;;;;;;25.67;20.67;;;;;5.41;92.02;100000.31;5072934;27;45428;-69
2023/01/14 05:48:48;;;;;;;;;19.67;19.67;;;;;5.47;91.48;99989.84;5076098;27;46113;-69
2023/01/14 05:51:13;;;;;;;;;25.33;22.67;;;;;5.51;91.48;99997.66;5075648;28;45462;-69
2023/01/14 05:53:39;;;;;;;;;28.33;22.67;;;;;5.55;91.44;100001.13;5076856;27;45429;-69
2023/01/14 05:56:05;;;;;;;;;27.67;24.00;;;;;5.55;91.00;99998.50;5075316;27;45469;-69
2023/01/14 05:58:31;;;;;;;;;28.00;22.67;;;;;5.55;90.93;99995.88;5076758;28;45457;-72
2023/01/14 06:06:36;;;;;;;;;34.00;26.67;;;;;5.45;90.51;99974.16;5076094;28;45387;-68
2023/01/14 06:09:07;;;;;;;;;29.00;26.00;;;;;5.39;90.15;99968.94;5076256;27;45361;-68
2023/01/14 06:11:32;;;;;;;;;23.67;21.67;;;;;5.34;90.00;99978.59;5087227;27;45505;-69
2023/01/14 06:13:58;;;;;;;;;26.00;23.67;;;;;5.30;89.91;99982.09;5076428;27;45434;-71
2023/01/14 06:16:27;;;;;;;;;25.67;23.33;;;;;5.27;90.09;99979.47;5071797;27;45512;-69
2023/01/14 06:18:53;;;;;;;;;27.00;23.33;;;;;5.23;89.86;99990.81;5076712;27;45315;-70
2023/01/14 06:21:28;;;;;;;;;31.00;27.67;;;;;5.17;89.86;99998.72;5073458;27;45402;-69
2023/01/14 06:23:55;;;;;;;;;25.67;24.67;;;;;5.15;90.16;99995.22;5076221;27;45502;-68
2023/01/14 06:26:21;;;;;;;;;34.67;28.33;;;;;5.12;89.95;99998.72;5069566;27;45519;-69
2023/01/14 06:28:47;;;;;;;;;25.67;24.00;;;;;5.09;90.14;100000.47;5076013;27;45371;-68
2023/01/14 06:31:18;;;;;;;;;32.33;27.67;;;;;5.07;90.50;100000.47;5074465;28;45460;-69
2023/01/14 06:33:45;;;;;;;;;25.67;24.00;;;;;5.04;90.19;100015.28;5075505;27;46151;-68
2023/01/14 06:36:12;;;;;;;;;24.33;21.33;;;;;5.00;89.98;100021.44;5072072;28;45620;-68
2023/01/14 06:38:38;;;;;;;;;30.00;27.00;;;;;4.99;90.26;100019.69;5075319;28;45434;-68
2023/01/14 06:41:05;;;;;;;;;32.00;29.00;;;;;4.96;89.78;100017.06;5073716;27;45374;-68
2023/01/14 06:43:31;;;;;;;;;27.67;23.00;;;;;4.95;90.28;100013.59;5075599;27;46311;-68
2023/01/14 06:45:57;;;;;;;;;31.33;22.00;;;;;4.96;90.21;100011.84;5067393;28;45455;-69
2023/01/14 06:48:24;;;;;;;;;27.67;24.33;;;;;4.94;90.37;99996.19;5074838;28;45401;-68
2023/01/14 06:50:50;;;;;;;;;30.00;28.00;;;;;4.95;90.06;99979.63;5074604;27;45434;-68
2023/01/14 06:53:17;;;;;;;;;21.67;21.67;;;;;4.96;89.85;99968.31;5085917;27;46890;-69
2023/01/14 06:55:42;;;;;;;;;23.67;22.67;;;;;4.95;89.78;99963.94;5074423;27;45491;-68
2023/01/14 06:58:08;;;;;;;;;21.33;18.67;;;;;4.95;90.06;99976.16;5075204;27;45456;-68
2023/01/14 07:00:34;;;;;;;;;20.67;19.33;;;;;4.94;90.14;99974.41;5069526;28;45501;-69
2023/01/14 07:03:00;;;;;;;;;16.67;15.67;;;;;4.94;90.15;99977.88;5074298;28;45836;-69
2023/01/14 07:05:25;;;;;;;;;22.67;20.00;;;;;4.95;90.21;99979.63;5069700;27;45359;-68
2023/01/14 07:07:51;;;;;;;;;17.00;17.00;;;;;4.98;90.11;99989.19;5084644;27;45588;-68
2023/01/14 07:10:18;;;;;;;;;23.00;20.67;;;;;4.97;90.14;99996.16;5070170;28;45575;-68
2023/01/14 07:12:48;;;;;;;;;17.33;17.00;;;;;5.00;90.31;99997.91;5087492;27;47848;-69
2023/01/14 07:15:16;;;;;;;;;27.00;23.00;;;;;5.03;89.71;99988.28;5070511;27;45464;-68
2023/01/14 07:17:41;;;;;;;;;22.00;19.00;;;;;5.00;89.60;99982.22;5090913;27;45459;-68
2023/01/14 07:20:08;;;;;;;;;21.00;18.00;;;;;5.00;89.94;99984.84;5070319;27;45560;-69
2023/01/14 07:22:34;;;;;;;;;27.00;22.00;;;;;5.02;89.66;99986.59;5074199;28;46058;-68
2023/01/14 07:25:02;;;;;;;;;25.33;22.67;;;;;5.05;89.87;99983.94;5073823;27;45431;-67
2023/01/14 07:27:29;;;;;;;;;25.67;22.67;;;;;5.10;89.94;99970.84;5074662;27;45522;-69
2023/01/14 07:29:54;;;;;;;;;23.33;20.67;;;;;5.14;89.93;99964.75;5087758;27;45387;-68
2023/01/14 07:32:20;;;;;;;;;30.00;24.67;;;;;5.17;89.74;99969.97;5090129;27;47323;-67
2023/01/14 07:34:45;;;;;;;;;24.67;22.00;;;;;5.21;89.89;99966.44;5074048;27;45469;-66
2023/01/14 07:37:11;;;;;;;;;28.00;24.33;;;;;5.23;89.54;99964.69;5074828;28;45355;-69
2023/01/14 07:39:36;;;;;;;;;25.67;23.33;;;;;5.26;89.09;99962.94;5073799;27;45546;-69
2023/01/14 07:42:01;;;;;;;;;17.67;15.33;;;;;5.29;89.13;99961.19;5074090;28;45459;-69
2023/01/14 07:44:27;;;;;;;;;23.00;19.00;;;;;5.32;89.04;99974.25;5071918;27;45428;-69
2023/01/14 07:46:53;;;;;;;;;20.33;17.33;;;;;5.34;88.82;99964.66;5069752;27;45855;-68
2023/01/14 07:49:20;;;;;;;;;24.00;20.00;;;;;5.37;88.71;99948.91;5070521;27;45475;-68
2023/01/14 07:51:46;;;;;;;;;26.00;20.00;;;;;5.39;88.40;99941.94;5072370;28;45741;-68
2023/01/14 07:54:11;;;;;;;;;25.67;20.67;;;;;5.40;88.56;99938.44;5072666;28;45411;-68
2023/01/14 07:56:36;;;;;;;;;22.00;18.33;;;;;5.40;88.21;99935.84;5073519;28;45375;-68
2023/01/14 07:59:02;;;;;;;;;19.33;16.67;;;;;5.41;88.34;99927.97;5064988;28;45522;-68
2023/01/14 08:01:27;;;;;;;;;27.00;22.00;;;;;5.43;88.23;99925.34;5071018;27;46124;-69
2023/01/14 08:03:52;;;;;;;;;24.00;21.00;;;;;5.47;88.41;99919.25;5073741;27;45375;-68
2023/01/14 08:06:18;;;;;;;;;22.67;21.33;;;;;5.49;88.39;99923.59;5072021;28;45914;-69
2023/01/14 08:08:43;;;;;;;;;24.67;22.67;;;;;5.55;88.10;99920.91;5073852;27;45499;-69
2023/01/14 08:11:09;;;;;;;;;19.67;18.33;;;;;5.61;88.19;99935.69;5069540;28;45560;-69
2023/01/14 08:13:35;;;;;;;;;19.00;15.67;;;;;5.68;87.49;99923.47;5074288;27;45486;-70
2023/01/14 08:16:03;;;;;;;;;18.67;18.00;;;;;5.73;86.93;99921.66;5071677;28;45576;-69
2023/01/14 08:18:29;;;;;;;;;27.33;22.67;;;;;5.78;87.12;99931.22;5073988;27;45445;-69
2023/01/14 08:21:04;;;;;;;;;24.67;21.00;;;;;5.81;87.17;99930.31;5070271;28;45434;-69
2023/01/14 08:23:30;;;;;;;;;33.67;24.33;;;;;5.82;87.15;99938.16;5072233;28;45395;-69
2023/01/14 08:26:04;;;;;;;;;25.33;24.33;;;;;5.86;87.39;99928.53;5069297;28;45358;-69
2023/01/14 08:28:30;;;;;;;;;29.33;23.67;;;;;5.89;87.14;99921.53;5074222;27;45411;-69
2023/01/14 08:31:07;;;;;;;;;28.33;26.00;;;;;5.90;87.02;99918.06;5071398;27;46031;-69
2023/01/14 08:33:34;;;;;;;;;33.33;29.33;;;;;5.92;86.73;99921.53;5073459;27;45466;-69
2023/01/14 08:36:09;;;;;;;;;27.00;25.33;;;;;5.97;87.03;99912.78;5071815;28;45423;-69
2023/01/14 08:38:36;;;;;;;;;32.00;29.67;;;;;5.97;86.08;99905.78;5073089;27;45369;-70
2023/01/14 08:41:03;;;;;;;;;26.67;23.00;;;;;5.99;86.45;99904.03;5071449;27;46282;-69
2023/01/14 08:43:29;;;;;;;;;30.33;27.00;;;;;6.03;86.67;99921.44;5072447;27;45356;-69
2023/01/14 08:45:54;;;;;;;;;25.67;24.33;;;;;6.09;86.50;99920.50;5070609;27;45400;-70
2023/01/14 08:48:20;;;;;;;;;34.00;32.33;;;;;6.14;86.42;99923.97;5088875;27;45538;-70
2023/01/14 08:50:45;;;;;;;;;38.33;33.33;;;;;6.21;86.09;99920.38;5071140;27;46068;-70
2023/01/14 08:53:10;;;;;;;;;26.33;21.33;;;;;6.29;85.78;99908.97;5073270;28;45490;-69
2023/01/14 08:55:36;;;;;;;;;15.00;14.00;;;;;6.36;84.59;99914.16;5071980;27;46042;-69
2023/01/14 08:58:05;;;;;;;;;20.33;16.67;;;;;6.44;84.43;99926.28;5072379;28;45480;-69
2023/01/14 09:00:30;;;;;;;;;13.33;13.00;;;;;6.51;83.28;99914.84;5071782;27;46491;-70
2023/01/14 09:02:56;;;;;;;;;12.00;11.67;;;;;6.59;82.76;99902.53;5073237;28;45408;-69
2023/01/14 09:05:21;;;;;;;;;15.67;12.67;;;;;6.69;82.32;99918.16;5070406;27;45759;-69
2023/01/14 09:18:42;;;;;;;;;9.67;8.33;;;;;7.11;78.30;99903.63;5073361;28;45555;-70
2023/01/14 09:21:08;;;;;;;;;7.33;7.00;;;;;7.14;78.28;99904.47;5068295;27;45502;-69
2023/01/14 09:23:33;;;;;;;;;10.00;8.50;;;;;7.17;77.88;99898.31;5072371;28;45403;-69
2023/01/14 09:25:59;;;;;;;;;281.33;234.00;;;;;7.25;77.67;99899.06;5061825;28;45534;-69
2023/01/14 09:28:24;;;;;;;;;10.67;7.67;;;;;7.35;77.22;99890.19;5071403;27;45380;-70
2023/01/14 09:30:49;;;;;;;;;21.33;19.00;;;;;7.51;80.78;99891.69;5068955;27;45608;-69
2023/01/14 09:33:15;;;;;;;;;62.00;48.33;;;;;7.75;81.82;99913.16;5071306;28;45386;-68
2023/01/14 09:35:40;;;;;;;;;20.33;19.33;;;;;7.92;80.70;99912.00;5067842;28;45476;-69
2023/01/14 09:38:06;;;;;;;;;31.67;28.33;;;;;7.97;79.86;99899.66;5091854;27;45588;-69
2023/01/14 09:40:36;;;;;;;;;34.00;30.33;;;;;7.97;79.44;99904.91;5072450;27;45474;-68
2023/01/14 09:43:01;;;;;;;;;26.33;21.00;;;;;8.02;80.35;99900.47;5076545;27;45329;-68
2023/01/14 09:45:31;;;;;;;;;34.67;31.33;;;;;8.11;80.10;99909.06;5086010;27;45485;-69
2023/01/14 09:48:02;;;;;;;;;35.00;30.67;;;;;8.13;80.38;99889.75;5070641;27;45598;-70
2023/01/14 09:50:30;;;;;;;;;35.33;29.33;;;;;8.16;79.69;99888.84;5072533;27;45394;-69
2023/01/14 09:53:46;;;;;;;;;29.67;28.00;;;;;8.15;79.63;99890.59;5075745;28;45438;-69
2023/01/14 09:56:17;;;;;;;;;34.33;31.33;;;;;8.16;79.84;99888.84;5009287;28;45579;-69
2023/01/14 09:58:50;;;;;;;;;49.67;40.00;;;;;8.15;80.06;99887.09;5077781;27;45648;-70
2023/01/14 10:01:48;;;;;;;;;38.33;29.67;;;;;8.16;80.25;99892.34;5073479;27;45590;-69
2023/01/14 10:04:40;;;;;;;;;42.67;34.67;;;;;8.13;80.27;99871.38;5058256;27;45587;-71
2023/01/14 10:07:09;;;;;;;;;36.00;34.33;;;;;8.16;79.95;99875.72;5084091;27;45375;-64
2023/01/14 10:09:43;;;;;;;;;42.33;37.00;;;;;8.20;80.13;99859.00;5073733;27;45403;-72
2023/01/14 10:12:16;;;;;;;;;30.67;26.67;;;;;8.24;79.63;99850.16;5075598;28;46108;-73
2023/01/14 10:14:50;;;;;;;;;42.33;34.67;;;;;8.23;79.85;99845.78;5075520;27;45396;-74
2023/01/14 10:17:21;;;;;;;;;38.00;32.00;;;;;8.27;79.84;99832.59;5075880;28;45440;-73
2023/01/14 10:19:49;;;;;;;;;39.00;33.33;;;;;8.32;79.86;99819.41;5059053;28;45522;-69
2023/01/14 10:22:36;;;;;;;;;35.00;33.33;;;;;8.38;79.62;99829.75;5071919;27;46176;-73
2023/01/14 10:25:04;;;;;;;;;46.33;36.67;;;;;8.44;79.66;99834.03;5060897;28;45441;-72
2023/01/14 10:27:31;;;;;;;;;40.00;31.67;;;;;8.48;79.57;99827.84;5072711;27;45384;-72
2023/01/14 10:30:21;;;;;;;;;39.33;33.33;;;;;8.50;79.34;99826.91;5068930;27;45677;-72
2023/01/14 10:32:52;;;;;;;;;36.00;34.33;;;;;8.51;79.35;99825.16;5072934;27;46489;-73
2023/01/14 10:35:28;;;;;;;;;39.00;33.67;;;;;8.53;79.19;99811.09;5068325;28;45392;-73
2023/01/14 10:37:53;;;;;;;;;35.00;33.33;;;;;8.54;79.34;99815.44;5073503;28;45337;-73
2023/01/14 10:40:24;;;;;;;;;29.33;29.33;;;;;8.56;79.14;99799.63;5070373;27;45484;-73
2023/01/14 10:42:53;;;;;;;;;35.33;34.33;;;;;8.58;79.15;99796.06;5090728;27;47529;-73
2023/01/14 10:45:19;;;;;;;;;33.33;29.67;;;;;8.59;78.83;99800.44;5067377;27;45637;-73
2023/01/14 10:47:47;;;;;;;;;33.33;31.33;;;;;8.62;78.90;99807.38;5057008;28;45313;-72
2023/01/14 10:50:21;;;;;;;;;35.00;33.33;;;;;8.67;79.26;99803.78;5074457;28;45424;-72
2023/01/14 10:52:47;;;;;;;;;34.33;32.33;;;;;8.73;79.00;99800.13;5090495;27;47634;-66
2023/01/14 10:55:20;;;;;;;;;34.00;28.67;;;;;8.77;78.77;99796.53;5071476;28;45537;-65
2023/01/14 10:58:11;;;;;;;;;30.67;29.00;;;;;8.81;78.50;99795.59;5075308;27;45467;-66
2023/01/14 11:00:42;;;;;;;;;30.67;29.33;;;;;8.82;78.66;99780.66;5065604;27;45520;-65
2023/01/14 11:03:28;;;;;;;;;32.67;28.00;;;;;8.88;78.62;99777.91;5070804;27;46016;-67
2023/01/14 11:06:17;;;;;;;;;37.33;32.00;;;;;8.94;78.75;99778.63;5066790;27;45487;-66
2023/01/14 11:08:45;;;;;;;;;35.00;34.00;;;;;8.98;78.90;99774.16;5067512;28;45468;-68
2023/01/14 11:11:24;;;;;;;;;28.00;26.00;;;;;9.01;78.83;99774.97;5069268;27;45418;-69
2023/01/14 11:13:54;;;;;;;;;36.67;31.33;;;;;9.05;78.07;99763.44;5069195;28;45516;-67
2023/01/14 11:16:27;;;;;;;;;34.67;33.33;;;;;9.08;78.36;99768.63;5071812;27;45451;-64
2023/01/14 11:19:14;;;;;;;;;33.00;32.33;;;;;9.12;78.42;99764.19;5075513;27;45564;-69
2023/01/14 11:21:46;;;;;;;;;34.33;30.33;;;;;9.13;77.88;99757.16;5069094;28;45401;-68
2023/01/14 11:24:26;;;;;;;;;33.33;26.00;;;;;9.13;77.17;99757.16;5073047;27;45494;-72
2023/01/14 11:27:13;;;;;;;;;34.00;28.00;;;;;9.14;76.99;99751.00;5069661;28;45425;-73
2023/01/14 11:29:50;;;;;;;;;44.67;31.67;;;;;9.14;77.30;99740.47;5079534;27;45537;-73
2023/01/14 11:32:21;;;;;;;;;31.67;28.67;;;;;9.15;77.45;99727.28;5074970;28;45532;-73
2023/01/14 11:34:50;;;;;;;;;38.33;32.00;;;;;9.18;77.78;99734.25;5074344;28;45375;-73
2023/01/14 11:37:32;;;;;;;;;40.67;35.33;;;;;9.22;78.23;99741.13;5074169;27;45364;-73
2023/01/14 11:39:59;;;;;;;;;30.67;28.00;;;;;9.25;78.01;99746.31;5074568;27;45459;-73
2023/01/14 11:42:32;;;;;;;;;33.00;33.00;;;;;9.29;78.22;99745.34;5074290;27;45385;-70
2023/01/14 11:45:10;;;;;;;;;34.33;31.67;;;;;9.34;78.16;99735.59;5065053;28;45881;-73
2023/01/14 11:47:58;;;;;;;;;39.67;31.33;;;;;9.44;78.12;99719.50;5081775;27;45397;-73
2023/01/14 11:50:33;;;;;;;;;38.00;31.67;;;;;9.53;77.54;99710.53;5053883;28;45372;-73
2023/01/14 11:53:06;;;;;;;;;32.00;27.33;;;;;9.61;76.52;99707.69;5078360;27;45419;-73
2023/01/14 11:55:36;;;;;;;;;27.33;22.00;;;;;9.67;76.16;99704.88;5079988;27;47608;-73
2023/01/14 11:58:07;;;;;;;;;29.33;28.00;;;;;9.76;76.30;99707.25;5073272;27;45431;-72
2023/01/14 12:00:37;;;;;;;;;35.33;31.67;;;;;9.86;76.10;99698.22;5069947;27;45581;-73
2023/01/14 12:03:10;;;;;;;;;28.00;27.00;;;;;9.93;75.64;99685.72;5072769;28;45368;-70